sensor_id;sensor_type;location;lat;lon;timestamp;P1;durP1;ratioP1;P2;durP2;ratioP2
24867;SDS011;12941;48.698;9.310;2023-12-28T00:00:43;6.3;;;4.2;;
24867;SDS011;12941;48.698;9.310;2023-12-28T00:01:47;6.3;;;4.2;;
24867;SDS011;12941;48.698;9.310;2023-12-28T00:02:47;6.3;;;4.2;;
24867;SDS011;12941;48.698;9.310;2023-12-28T00:03:47;7.4;;;4.7;;
24867;SDS011;12941;48.698;9.310;2023-12-28T00:04:53;7.4;;;4.7;;
24867;SDS011;12941;48.698;9.310;2023-12-28T00:05:53;7.4;;;4.7;;
24867;SDS011;12941;48.698;9.310;2023-12-28T00:06:57;7.4;;;4.7;;
24867;SDS011;12941;48.698;9.310;2023-12-28T00:07:57;7.4;;;4.7;;
24867;SDS011;12941;48.698;9.310;2023-12-28T00:09:03;5.7;;;4.1;;
24867;SDS011;12941;48.698;9.310;2023-12-28T00:10:08;5.7;;;4.1;;
24867;SDS011;12941;48.698;9.310;2023-12-28T00:11:13;5.7;;;4.1;;
24867;SDS011;12941;48.698;9.310;2023-12-28T00:12:17;5.7;;;4.1;;
24867;SDS011;12941;48.698;9.310;2023-12-28T00:13:18;5.7;;;4.1;;
24867;SDS011;12941;48.698;9.310;2023-12-28T00:14:23;9.9;;;7.2;;
24867;SDS011;12941;48.698;9.310;2023-12-28T00:15:23;9.9;;;7.2;;
24867;SDS011;12941;48.698;9.310;2023-12-28T00:16:23;9.9;;;7.2;;
24867;SDS011;12941;48.698;9.310;2023-12-28T00:17:28;9.9;;;7.2;;
24867;SDS011;12941;48.698;9.310;2023-12-28T00:18:33;10;;;6.2;;
24867;SDS011;12941;48.698;9.310;2023-12-28T00:19:33;10;;;6.2;;
24867;SDS011;12941;48.698;9.310;2023-12-28T00:20:37;10;;;6.2;;
24867;SDS011;12941;48.698;9.310;2023-12-28T00:21:37;10;;;6.2;;
24867;SDS011;12941;48.698;9.310;2023-12-28T00:22:38;10;;;6.2;;
24867;SDS011;12941;48.698;9.310;2023-12-28T00:23:43;10;;;5.9;;
24867;SDS011;12941;48.698;9.310;2023-12-28T00:24:43;10;;;5.9;;
24867;SDS011;12941;48.698;9.310;2023-12-28T00:25:47;10;;;5.9;;
24867;SDS011;12941;48.698;9.310;2023-12-28T00:26:47;10;;;5.9;;
24867;SDS011;12941;48.698;9.310;2023-12-28T00:27:47;10;;;5.9;;
24867;SDS011;12941;48.698;9.310;2023-12-28T00:28:48;7.3;;;5.5;;
24867;SDS011;12941;48.698;9.310;2023-12-28T00:29:53;7.3;;;5.5;;
24867;SDS011;12941;48.698;9.310;2023-12-28T00:30:53;7.3;;;5.5;;
24867;SDS011;12941;48.698;9.310;2023-12-28T00:31:53;7.3;;;5.5;;
24867;SDS011;12941;48.698;9.310;2023-12-28T00:32:58;7.3;;;5.5;;
24867;SDS011;12941;48.698;9.310;2023-12-28T00:34:03;9.3;;;5.5;;
24867;SDS011;12941;48.698;9.310;2023-12-28T00:35:03;9.3;;;5.5;;
24867;SDS011;12941;48.698;9.310;2023-12-28T00:36:08;9.3;;;5.5;;
24867;SDS011;12941;48.698;9.310;2023-12-28T00:37:13;9.3;;;5.5;;
24867;SDS011;12941;48.698;9.310;2023-12-28T00:38:13;9.3;;;5.5;;
24867;SDS011;12941;48.698;9.310;2023-12-28T00:39:13;10.1;;;5.8;;
24867;SDS011;12941;48.698;9.310;2023-12-28T00:40:18;10.1;;;5.8;;
24867;SDS011;12941;48.698;9.310;2023-12-28T00:41:23;10.1;;;5.8;;
24867;SDS011;12941;48.698;9.310;2023-12-28T00:42:28;10.1;;;5.8;;
24867;SDS011;12941;48.698;9.310;2023-12-28T00:43:33;9.8;;;5.4;;
24867;SDS011;12941;48.698;9.310;2023-12-28T00:44:38;9.8;;;5.4;;
24867;SDS011;12941;48.698;9.310;2023-12-28T00:45:38;9.8;;;5.4;;
24867;SDS011;12941;48.698;9.310;2023-12-28T00:46:43;9.8;;;5.4;;
24867;SDS011;12941;48.698;9.310;2023-12-28T00:47:48;9.8;;;5.4;;
24867;SDS011;12941;48.698;9.310;2023-12-28T00:48:53;10.1;;;6.8;;
24867;SDS011;12941;48.698;9.310;2023-12-28T00:49:53;10.1;;;6.8;;
24867;SDS011;12941;48.698;9.310;2023-12-28T00:50:58;10.1;;;6.8;;
24867;SDS011;12941;48.698;9.310;2023-12-28T00:51:58;10.1;;;6.8;;
24867;SDS011;12941;48.698;9.310;2023-12-28T00:53:03;10.1;;;6.8;;
24867;SDS011;12941;48.698;9.310;2023-12-28T00:54:08;9.3;;;6.3;;
24867;SDS011;12941;48.698;9.310;2023-12-28T00:55:08;9.3;;;6.3;;
24867;SDS011;12941;48.698;9.310;2023-12-28T00:56:13;9.3;;;6.3;;
24867;SDS011;12941;48.698;9.310;2023-12-28T00:57:13;9.3;;;6.3;;
24867;SDS011;12941;48.698;9.310;2023-12-28T00:58:18;9.3;;;6.3;;
24867;SDS011;12941;48.698;9.310;2023-12-28T00:59:23;9.3;;;6;;
24867;SDS011;12941;48.698;9.310;2023-12-28T01:00:28;9.3;;;6;;
24867;SDS011;12941;48.698;9.310;2023-12-28T01:01:28;9.3;;;6;;
24867;SDS011;12941;48.698;9.310;2023-12-28T01:02:28;9.3;;;6;;
24867;SDS011;12941;48.698;9.310;2023-12-28T01:03:28;9.1;;;6.7;;
24867;SDS011;12941;48.698;9.310;2023-12-28T01:04:33;9.1;;;6.7;;
24867;SDS011;12941;48.698;9.310;2023-12-28T01:05:38;9.1;;;6.7;;
24867;SDS011;12941;48.698;9.310;2023-12-28T01:06:43;9.1;;;6.7;;
24867;SDS011;12941;48.698;9.310;2023-12-28T01:07:43;9.1;;;6.7;;
24867;SDS011;12941;48.698;9.310;2023-12-28T01:08:43;7.4;;;5.5;;
24867;SDS011;12941;48.698;9.310;2023-12-28T01:09:48;7.4;;;5.5;;
24867;SDS011;12941;48.698;9.310;2023-12-28T01:10:53;7.4;;;5.5;;
24867;SDS011;12941;48.698;9.310;2023-12-28T01:11:53;7.4;;;5.5;;
24867;SDS011;12941;48.698;9.310;2023-12-28T01:12:58;7.4;;;5.5;;
24867;SDS011;12941;48.698;9.310;2023-12-28T01:13:58;10.5;;;6.9;;
24867;SDS011;12941;48.698;9.310;2023-12-28T01:15:03;10.5;;;6.9;;
24867;SDS011;12941;48.698;9.310;2023-12-28T01:16:03;10.5;;;6.9;;
24867;SDS011;12941;48.698;9.310;2023-12-28T01:17:08;10.5;;;6.9;;
24867;SDS011;12941;48.698;9.310;2023-12-28T01:18:08;10.5;;;6.9;;
24867;SDS011;12941;48.698;9.310;2023-12-28T01:19:13;11.7;;;7;;
24867;SDS011;12941;48.698;9.310;2023-12-28T01:20:18;11.7;;;7;;
24867;SDS011;12941;48.698;9.310;2023-12-28T01:21:18;11.7;;;7;;
24867;SDS011;12941;48.698;9.310;2023-12-28T01:22:18;11.7;;;7;;
24867;SDS011;12941;48.698;9.310;2023-12-28T01:23:18;11.7;;;7;;
24867;SDS011;12941;48.698;9.310;2023-12-28T01:24:23;12.2;;;7.3;;
24867;SDS011;12941;48.698;9.310;2023-12-28T01:25:23;12.2;;;7.3;;
24867;SDS011;12941;48.698;9.310;2023-12-28T01:26:28;12.2;;;7.3;;
24867;SDS011;12941;48.698;9.310;2023-12-28T01:27:28;12.2;;;7.3;;
24867;SDS011;12941;48.698;9.310;2023-12-28T01:28:28;10;;;6.5;;
24867;SDS011;12941;48.698;9.310;2023-12-28T01:29:33;10;;;6.5;;
24867;SDS011;12941;48.698;9.310;2023-12-28T01:30:38;10;;;6.5;;
24867;SDS011;12941;48.698;9.310;2023-12-28T01:31:38;10;;;6.5;;
24867;SDS011;12941;48.698;9.310;2023-12-28T01:32:43;10;;;6.5;;
24867;SDS011;12941;48.698;9.310;2023-12-28T01:33:43;9.1;;;6.2;;
24867;SDS011;12941;48.698;9.310;2023-12-28T01:34:48;9.1;;;6.2;;
24867;SDS011;12941;48.698;9.310;2023-12-28T01:35:53;9.1;;;6.2;;
24867;SDS011;12941;48.698;9.310;2023-12-28T01:36:58;9.1;;;6.2;;
24867;SDS011;12941;48.698;9.310;2023-12-28T01:38:03;9.1;;;6.2;;
24867;SDS011;12941;48.698;9.310;2023-12-28T01:39:08;15.2;;;8.7;;
24867;SDS011;12941;48.698;9.310;2023-12-28T01:40:13;15.2;;;8.7;;
24867;SDS011;12941;48.698;9.310;2023-12-28T01:41:13;15.2;;;8.7;;
24867;SDS011;12941;48.698;9.310;2023-12-28T01:42:18;15.2;;;8.7;;
24867;SDS011;12941;48.698;9.310;2023-12-28T01:43:23;11.4;;;6.3;;
24867;SDS011;12941;48.698;9.310;2023-12-28T01:44:23;11.6;;;6.2;;
24867;SDS011;12941;48.698;9.310;2023-12-28T01:45:23;11.6;;;6.2;;
24867;SDS011;12941;48.698;9.310;2023-12-28T01:46:28;11.6;;;6.2;;
24867;SDS011;12941;48.698;9.310;2023-12-28T01:47:28;11.6;;;6.2;;
24867;SDS011;12941;48.698;9.310;2023-12-28T01:48:28;9.2;;;5.8;;
24867;SDS011;12941;48.698;9.310;2023-12-28T01:49:33;9.2;;;5.8;;
24867;SDS011;12941;48.698;9.310;2023-12-28T01:50:38;9.2;;;5.8;;
24867;SDS011;12941;48.698;9.310;2023-12-28T01:51:38;9.2;;;5.8;;
24867;SDS011;12941;48.698;9.310;2023-12-28T01:52:38;9.2;;;5.8;;
24867;SDS011;12941;48.698;9.310;2023-12-28T01:53:43;6.2;;;5.2;;
24867;SDS011;12941;48.698;9.310;2023-12-28T01:54:48;6.2;;;5.2;;
24867;SDS011;12941;48.698;9.310;2023-12-28T01:55:48;6.2;;;5.2;;
24867;SDS011;12941;48.698;9.310;2023-12-28T01:56:53;6.2;;;5.2;;
24867;SDS011;12941;48.698;9.310;2023-12-28T01:57:53;6.2;;;5.2;;
24867;SDS011;12941;48.698;9.310;2023-12-28T01:58:53;11.9;;;6.3;;
24867;SDS011;12941;48.698;9.310;2023-12-28T01:59:53;11.9;;;6.3;;
24867;SDS011;12941;48.698;9.310;2023-12-28T02:00:58;11.9;;;6.3;;
24867;SDS011;12941;48.698;9.310;2023-12-28T02:01:58;11.9;;;6.3;;
24867;SDS011;12941;48.698;9.310;2023-12-28T02:03:03;11.9;;;6.3;;
24867;SDS011;12941;48.698;9.310;2023-12-28T02:04:08;10.3;;;6.3;;
24867;SDS011;12941;48.698;9.310;2023-12-28T02:05:08;10.3;;;6.3;;
24867;SDS011;12941;48.698;9.310;2023-12-28T02:06:08;10.3;;;6.3;;
24867;SDS011;12941;48.698;9.310;2023-12-28T02:07:08;10.3;;;6.3;;
24867;SDS011;12941;48.698;9.310;2023-12-28T02:08:13;10.3;;;6.3;;
24867;SDS011;12941;48.698;9.310;2023-12-28T02:09:14;8.8;;;5.5;;
24867;SDS011;12941;48.698;9.310;2023-12-28T02:10:18;8.8;;;5.5;;
24867;SDS011;12941;48.698;9.310;2023-12-28T02:11:23;8.8;;;5.5;;
24867;SDS011;12941;48.698;9.310;2023-12-28T02:12:23;8.8;;;5.5;;
24867;SDS011;12941;48.698;9.310;2023-12-28T02:13:23;11;;;6.2;;
24867;SDS011;12941;48.698;9.310;2023-12-28T02:14:28;11;;;6.1;;
24867;SDS011;12941;48.698;9.310;2023-12-28T02:15:28;11;;;6.1;;
24867;SDS011;12941;48.698;9.310;2023-12-28T02:16:33;11;;;6.1;;
24867;SDS011;12941;48.698;9.310;2023-12-28T02:17:39;11;;;6.1;;
24867;SDS011;12941;48.698;9.310;2023-12-28T02:18:39;13;;;6.9;;
24867;SDS011;12941;48.698;9.310;2023-12-28T02:19:45;13;;;6.9;;
24867;SDS011;12941;48.698;9.310;2023-12-28T02:20:48;13;;;6.9;;
24867;SDS011;12941;48.698;9.310;2023-12-28T02:21:48;13;;;6.9;;
24867;SDS011;12941;48.698;9.310;2023-12-28T02:22:48;13;;;6.9;;
24867;SDS011;12941;48.698;9.310;2023-12-28T02:23:53;14.2;;;5.8;;
24867;SDS011;12941;48.698;9.310;2023-12-28T02:24:56;14.2;;;5.8;;
24867;SDS011;12941;48.698;9.310;2023-12-28T02:25:58;14.2;;;5.8;;
24867;SDS011;12941;48.698;9.310;2023-12-28T02:26:58;14.2;;;5.8;;
24867;SDS011;12941;48.698;9.310;2023-12-28T02:28:03;14.2;;;5.8;;
24867;SDS011;12941;48.698;9.310;2023-12-28T02:29:03;16.2;;;8;;
24867;SDS011;12941;48.698;9.310;2023-12-28T02:30:04;16.2;;;8;;
24867;SDS011;12941;48.698;9.310;2023-12-28T02:31:03;16.2;;;8;;
24867;SDS011;12941;48.698;9.310;2023-12-28T02:32:08;16.2;;;8;;
24867;SDS011;12941;48.698;9.310;2023-12-28T02:33:15;16.2;;;8;;
24867;SDS011;12941;48.698;9.310;2023-12-28T02:34:16;13.3;;;6.2;;
24867;SDS011;12941;48.698;9.310;2023-12-28T02:35:19;13.3;;;6.2;;
24867;SDS011;12941;48.698;9.310;2023-12-28T02:36:19;13.3;;;6.2;;
24867;SDS011;12941;48.698;9.310;2023-12-28T02:37:23;13.3;;;6.2;;
24867;SDS011;12941;48.698;9.310;2023-12-28T02:38:23;8.6;;;5.4;;
24867;SDS011;12941;48.698;9.310;2023-12-28T02:39:28;8.5;;;5.3;;
24867;SDS011;12941;48.698;9.310;2023-12-28T02:40:35;8.5;;;5.3;;
24867;SDS011;12941;48.698;9.310;2023-12-28T02:41:33;8.5;;;5.3;;
24867;SDS011;12941;48.698;9.310;2023-12-28T02:42:38;8.5;;;5.3;;
24867;SDS011;12941;48.698;9.310;2023-12-28T02:43:39;8.4;;;4.8;;
24867;SDS011;12941;48.698;9.310;2023-12-28T02:44:43;8.4;;;4.8;;
24867;SDS011;12941;48.698;9.310;2023-12-28T02:45:43;8.4;;;4.8;;
24867;SDS011;12941;48.698;9.310;2023-12-28T02:46:43;8.4;;;4.8;;
24867;SDS011;12941;48.698;9.310;2023-12-28T02:47:43;8.4;;;4.8;;
24867;SDS011;12941;48.698;9.310;2023-12-28T02:48:49;6.1;;;4;;
24867;SDS011;12941;48.698;9.310;2023-12-28T02:49:48;6.1;;;4;;
24867;SDS011;12941;48.698;9.310;2023-12-28T02:50:49;6.1;;;4;;
24867;SDS011;12941;48.698;9.310;2023-12-28T02:51:53;6.1;;;4;;
24867;SDS011;12941;48.698;9.310;2023-12-28T02:52:53;6.1;;;4;;
24867;SDS011;12941;48.698;9.310;2023-12-28T02:53:53;5;;;3.6;;
24867;SDS011;12941;48.698;9.310;2023-12-28T02:54:58;5;;;3.6;;
24867;SDS011;12941;48.698;9.310;2023-12-28T02:56:04;5;;;3.6;;
24867;SDS011;12941;48.698;9.310;2023-12-28T02:57:08;5;;;3.6;;
24867;SDS011;12941;48.698;9.310;2023-12-28T02:58:13;5;;;3.6;;
24867;SDS011;12941;48.698;9.310;2023-12-28T02:59:14;6.1;;;3.7;;
24867;SDS011;12941;48.698;9.310;2023-12-28T03:00:19;6.1;;;3.7;;
24867;SDS011;12941;48.698;9.310;2023-12-28T03:01:23;6.1;;;3.7;;
24867;SDS011;12941;48.698;9.310;2023-12-28T03:02:23;6.1;;;3.7;;
24867;SDS011;12941;48.698;9.310;2023-12-28T03:03:23;5.1;;;3.4;;
24867;SDS011;12941;48.698;9.310;2023-12-28T03:04:23;5.2;;;3.4;;
24867;SDS011;12941;48.698;9.310;2023-12-28T03:05:28;5.2;;;3.4;;
24867;SDS011;12941;48.698;9.310;2023-12-28T03:06:28;5.2;;;3.4;;
24867;SDS011;12941;48.698;9.310;2023-12-28T03:07:29;5.2;;;3.4;;
24867;SDS011;12941;48.698;9.310;2023-12-28T03:08:33;5.8;;;3.1;;
24867;SDS011;12941;48.698;9.310;2023-12-28T03:09:34;5.8;;;3.1;;
24867;SDS011;12941;48.698;9.310;2023-12-28T03:10:33;5.8;;;3.1;;
24867;SDS011;12941;48.698;9.310;2023-12-28T03:11:34;5.8;;;3.1;;
24867;SDS011;12941;48.698;9.310;2023-12-28T03:12:38;5.8;;;3.1;;
24867;SDS011;12941;48.698;9.310;2023-12-28T03:13:38;3.4;;;2.7;;
24867;SDS011;12941;48.698;9.310;2023-12-28T03:14:44;3.4;;;2.7;;
24867;SDS011;12941;48.698;9.310;2023-12-28T03:15:49;3.4;;;2.7;;
24867;SDS011;12941;48.698;9.310;2023-12-28T03:16:49;3.4;;;2.7;;
24867;SDS011;12941;48.698;9.310;2023-12-28T03:17:49;3.4;;;2.7;;
24867;SDS011;12941;48.698;9.310;2023-12-28T03:18:49;2.7;;;2.4;;
24867;SDS011;12941;48.698;9.310;2023-12-28T03:19:54;2.7;;;2.4;;
24867;SDS011;12941;48.698;9.310;2023-12-28T03:20:59;2.7;;;2.4;;
24867;SDS011;12941;48.698;9.310;2023-12-28T03:21:59;2.7;;;2.4;;
24867;SDS011;12941;48.698;9.310;2023-12-28T03:23:04;2.7;;;2.4;;
24867;SDS011;12941;48.698;9.310;2023-12-28T03:24:04;6.2;;;4.1;;
24867;SDS011;12941;48.698;9.310;2023-12-28T03:25:09;6.2;;;4.1;;
24867;SDS011;12941;48.698;9.310;2023-12-28T03:26:09;6.2;;;4.1;;
24867;SDS011;12941;48.698;9.310;2023-12-28T03:27:09;6.2;;;4.1;;
24867;SDS011;12941;48.698;9.310;2023-12-28T03:28:14;6.2;;;4.1;;
24867;SDS011;12941;48.698;9.310;2023-12-28T03:29:19;5.4;;;4;;
24867;SDS011;12941;48.698;9.310;2023-12-28T03:30:19;5.4;;;4;;
24867;SDS011;12941;48.698;9.310;2023-12-28T03:31:24;5.4;;;4;;
24867;SDS011;12941;48.698;9.310;2023-12-28T03:32:29;5.4;;;4;;
24867;SDS011;12941;48.698;9.310;2023-12-28T03:33:34;4.9;;;3.9;;
24867;SDS011;12941;48.698;9.310;2023-12-28T03:34:34;4.9;;;3.9;;
24867;SDS011;12941;48.698;9.310;2023-12-28T03:35:34;4.9;;;3.9;;
24867;SDS011;12941;48.698;9.310;2023-12-28T03:36:39;4.9;;;3.9;;
24867;SDS011;12941;48.698;9.310;2023-12-28T03:37:39;4.9;;;3.9;;
24867;SDS011;12941;48.698;9.310;2023-12-28T03:38:39;3.4;;;3;;
24867;SDS011;12941;48.698;9.310;2023-12-28T03:39:44;3.4;;;3;;
24867;SDS011;12941;48.698;9.310;2023-12-28T03:40:44;3.4;;;3;;
24867;SDS011;12941;48.698;9.310;2023-12-28T03:41:49;3.4;;;3;;
24867;SDS011;12941;48.698;9.310;2023-12-28T03:42:49;3.4;;;3;;
24867;SDS011;12941;48.698;9.310;2023-12-28T03:43:54;3.7;;;2.6;;
24867;SDS011;12941;48.698;9.310;2023-12-28T03:44:54;3.7;;;2.6;;
24867;SDS011;12941;48.698;9.310;2023-12-28T03:45:59;3.7;;;2.6;;
24867;SDS011;12941;48.698;9.310;2023-12-28T03:47:04;3.7;;;2.6;;
24867;SDS011;12941;48.698;9.310;2023-12-28T03:48:09;3.7;;;2.6;;
24867;SDS011;12941;48.698;9.310;2023-12-28T03:49:09;2.7;;;2.2;;
24867;SDS011;12941;48.698;9.310;2023-12-28T03:50:14;2.7;;;2.2;;
24867;SDS011;12941;48.698;9.310;2023-12-28T03:51:14;2.7;;;2.2;;
24867;SDS011;12941;48.698;9.310;2023-12-28T03:52:19;2.7;;;2.2;;
24867;SDS011;12941;48.698;9.310;2023-12-28T03:53:19;2.7;;;2.2;;
24867;SDS011;12941;48.698;9.310;2023-12-28T03:54:24;4.2;;;2.5;;
24867;SDS011;12941;48.698;9.310;2023-12-28T03:55:24;4.2;;;2.5;;
24867;SDS011;12941;48.698;9.310;2023-12-28T03:56:29;4.2;;;2.5;;
24867;SDS011;12941;48.698;9.310;2023-12-28T03:57:29;4.2;;;2.5;;
24867;SDS011;12941;48.698;9.310;2023-12-28T03:58:29;3.3;;;2;;
24867;SDS011;12941;48.698;9.310;2023-12-28T03:59:34;3.3;;;2;;
24867;SDS011;12941;48.698;9.310;2023-12-28T04:00:39;3.3;;;2;;
24867;SDS011;12941;48.698;9.310;2023-12-28T04:01:39;3.3;;;2;;
24867;SDS011;12941;48.698;9.310;2023-12-28T04:02:44;3.3;;;2;;
24867;SDS011;12941;48.698;9.310;2023-12-28T04:03:49;4.3;;;2.9;;
24867;SDS011;12941;48.698;9.310;2023-12-28T04:04:49;4.3;;;2.9;;
24867;SDS011;12941;48.698;9.310;2023-12-28T04:05:54;4.3;;;2.9;;
24867;SDS011;12941;48.698;9.310;2023-12-28T04:06:54;4.3;;;2.9;;
24867;SDS011;12941;48.698;9.310;2023-12-28T04:07:59;4.3;;;2.9;;
24867;SDS011;12941;48.698;9.310;2023-12-28T04:08:59;3.2;;;2.6;;
24867;SDS011;12941;48.698;9.310;2023-12-28T04:10:04;3.2;;;2.6;;
24867;SDS011;12941;48.698;9.310;2023-12-28T04:11:09;3.2;;;2.6;;
24867;SDS011;12941;48.698;9.310;2023-12-28T04:12:09;3.2;;;2.6;;
24867;SDS011;12941;48.698;9.310;2023-12-28T04:13:14;3.2;;;2.6;;
24867;SDS011;12941;48.698;9.310;2023-12-28T04:14:14;4.9;;;2.8;;
24867;SDS011;12941;48.698;9.310;2023-12-28T04:15:19;4.9;;;2.8;;
24867;SDS011;12941;48.698;9.310;2023-12-28T04:16:19;4.9;;;2.8;;
24867;SDS011;12941;48.698;9.310;2023-12-28T04:17:19;4.9;;;2.8;;
24867;SDS011;12941;48.698;9.310;2023-12-28T04:18:19;4.9;;;2.8;;
24867;SDS011;12941;48.698;9.310;2023-12-28T04:19:19;2.3;;;1.8;;
24867;SDS011;12941;48.698;9.310;2023-12-28T04:20:19;2.3;;;1.8;;
24867;SDS011;12941;48.698;9.310;2023-12-28T04:21:25;2.3;;;1.8;;
24867;SDS011;12941;48.698;9.310;2023-12-28T04:22:29;2.3;;;1.8;;
24867;SDS011;12941;48.698;9.310;2023-12-28T04:23:29;3.4;;;1.8;;
24867;SDS011;12941;48.698;9.310;2023-12-28T04:24:36;3.4;;;1.8;;
24867;SDS011;12941;48.698;9.310;2023-12-28T04:25:39;3.4;;;1.8;;
24867;SDS011;12941;48.698;9.310;2023-12-28T04:26:40;3.4;;;1.8;;
24867;SDS011;12941;48.698;9.310;2023-12-28T04:27:44;3.4;;;1.8;;
24867;SDS011;12941;48.698;9.310;2023-12-28T04:28:45;2.8;;;2;;
24867;SDS011;12941;48.698;9.310;2023-12-28T04:29:50;2.8;;;2;;
24867;SDS011;12941;48.698;9.310;2023-12-28T04:30:55;2.8;;;2;;
24867;SDS011;12941;48.698;9.310;2023-12-28T04:31:55;2.8;;;2;;
24867;SDS011;12941;48.698;9.310;2023-12-28T04:33:00;2.8;;;2;;
24867;SDS011;12941;48.698;9.310;2023-12-28T04:34:05;3.2;;;2.1;;
24867;SDS011;12941;48.698;9.310;2023-12-28T04:35:05;3.2;;;2.1;;
24867;SDS011;12941;48.698;9.310;2023-12-28T04:36:05;3.2;;;2.1;;
24867;SDS011;12941;48.698;9.310;2023-12-28T04:37:09;3.2;;;2.1;;
24867;SDS011;12941;48.698;9.310;2023-12-28T04:38:14;3.2;;;2.1;;
24867;SDS011;12941;48.698;9.310;2023-12-28T04:39:15;2.9;;;2.5;;
24867;SDS011;12941;48.698;9.310;2023-12-28T04:40:15;2.9;;;2.5;;
24867;SDS011;12941;48.698;9.310;2023-12-28T04:41:15;2.9;;;2.5;;
24867;SDS011;12941;48.698;9.310;2023-12-28T04:42:20;2.9;;;2.5;;
24867;SDS011;12941;48.698;9.310;2023-12-28T04:43:20;3;;;2.4;;
24867;SDS011;12941;48.698;9.310;2023-12-28T04:44:25;2.9;;;2.4;;
24867;SDS011;12941;48.698;9.310;2023-12-28T04:45:30;2.9;;;2.4;;
24867;SDS011;12941;48.698;9.310;2023-12-28T04:46:30;2.9;;;2.4;;
24867;SDS011;12941;48.698;9.310;2023-12-28T04:47:35;2.9;;;2.4;;
24867;SDS011;12941;48.698;9.310;2023-12-28T04:48:35;3.1;;;2.4;;
24867;SDS011;12941;48.698;9.310;2023-12-28T04:49:40;3.1;;;2.4;;
24867;SDS011;12941;48.698;9.310;2023-12-28T04:50:45;3.1;;;2.4;;
24867;SDS011;12941;48.698;9.310;2023-12-28T04:51:45;3.1;;;2.4;;
24867;SDS011;12941;48.698;9.310;2023-12-28T04:52:50;3.1;;;2.4;;
24867;SDS011;12941;48.698;9.310;2023-12-28T04:53:55;1.7;;;1.6;;
24867;SDS011;12941;48.698;9.310;2023-12-28T04:55:00;1.7;;;1.6;;
24867;SDS011;12941;48.698;9.310;2023-12-28T04:56:00;1.7;;;1.6;;
24867;SDS011;12941;48.698;9.310;2023-12-28T04:57:00;1.7;;;1.6;;
24867;SDS011;12941;48.698;9.310;2023-12-28T04:58:05;1.7;;;1.6;;
24867;SDS011;12941;48.698;9.310;2023-12-28T04:59:05;2;;;1.6;;
24867;SDS011;12941;48.698;9.310;2023-12-28T05:00:10;2;;;1.6;;
24867;SDS011;12941;48.698;9.310;2023-12-28T05:01:10;2;;;1.6;;
24867;SDS011;12941;48.698;9.310;2023-12-28T05:02:15;2;;;1.6;;
24867;SDS011;12941;48.698;9.310;2023-12-28T05:03:20;3.9;;;2.2;;
24867;SDS011;12941;48.698;9.310;2023-12-28T05:04:20;3.8;;;2.2;;
24867;SDS011;12941;48.698;9.310;2023-12-28T05:05:25;3.8;;;2.2;;
24867;SDS011;12941;48.698;9.310;2023-12-28T05:06:30;3.8;;;2.2;;
24867;SDS011;12941;48.698;9.310;2023-12-28T05:07:35;3.8;;;2.2;;
24867;SDS011;12941;48.698;9.310;2023-12-28T05:08:35;5.6;;;3.5;;
24867;SDS011;12941;48.698;9.310;2023-12-28T05:09:35;5.6;;;3.5;;
24867;SDS011;12941;48.698;9.310;2023-12-28T05:10:40;5.6;;;3.5;;
24867;SDS011;12941;48.698;9.310;2023-12-28T05:11:45;5.6;;;3.5;;
24867;SDS011;12941;48.698;9.310;2023-12-28T05:12:45;5.6;;;3.5;;
24867;SDS011;12941;48.698;9.310;2023-12-28T05:13:50;4.2;;;2.4;;
24867;SDS011;12941;48.698;9.310;2023-12-28T05:14:55;4.2;;;2.4;;
24867;SDS011;12941;48.698;9.310;2023-12-28T05:16:00;4.2;;;2.4;;
24867;SDS011;12941;48.698;9.310;2023-12-28T05:17:00;4.2;;;2.4;;
24867;SDS011;12941;48.698;9.310;2023-12-28T05:18:05;4.2;;;2.4;;
24867;SDS011;12941;48.698;9.310;2023-12-28T05:19:10;3.7;;;2.1;;
24867;SDS011;12941;48.698;9.310;2023-12-28T05:20:15;3.7;;;2.1;;
24867;SDS011;12941;48.698;9.310;2023-12-28T05:21:15;3.7;;;2.1;;
24867;SDS011;12941;48.698;9.310;2023-12-28T05:22:20;3.7;;;2.1;;
24867;SDS011;12941;48.698;9.310;2023-12-28T05:23:25;2.4;;;1.8;;
24867;SDS011;12941;48.698;9.310;2023-12-28T05:24:25;2.4;;;1.8;;
24867;SDS011;12941;48.698;9.310;2023-12-28T05:25:25;2.4;;;1.8;;
24867;SDS011;12941;48.698;9.310;2023-12-28T05:26:30;2.4;;;1.8;;
24867;SDS011;12941;48.698;9.310;2023-12-28T05:27:35;2.4;;;1.8;;
24867;SDS011;12941;48.698;9.310;2023-12-28T05:28:35;1.9;;;1.6;;
24867;SDS011;12941;48.698;9.310;2023-12-28T05:29:35;1.9;;;1.6;;
24867;SDS011;12941;48.698;9.310;2023-12-28T05:30:40;1.9;;;1.6;;
24867;SDS011;12941;48.698;9.310;2023-12-28T05:31:40;1.9;;;1.6;;
24867;SDS011;12941;48.698;9.310;2023-12-28T05:32:45;1.9;;;1.6;;
24867;SDS011;12941;48.698;9.310;2023-12-28T05:33:50;2.3;;;1.9;;
24867;SDS011;12941;48.698;9.310;2023-12-28T05:34:50;2.3;;;1.9;;
24867;SDS011;12941;48.698;9.310;2023-12-28T05:35:50;2.3;;;1.9;;
24867;SDS011;12941;48.698;9.310;2023-12-28T05:36:55;2.3;;;1.9;;
24867;SDS011;12941;48.698;9.310;2023-12-28T05:37:55;2.3;;;1.9;;
24867;SDS011;12941;48.698;9.310;2023-12-28T05:39:00;1.5;;;1.4;;
24867;SDS011;12941;48.698;9.310;2023-12-28T05:40:05;1.5;;;1.4;;
24867;SDS011;12941;48.698;9.310;2023-12-28T05:41:10;1.5;;;1.4;;
24867;SDS011;12941;48.698;9.310;2023-12-28T05:42:15;1.5;;;1.4;;
24867;SDS011;12941;48.698;9.310;2023-12-28T05:43:15;1.5;;;1.4;;
24867;SDS011;12941;48.698;9.310;2023-12-28T05:44:20;2;;;1.4;;
24867;SDS011;12941;48.698;9.310;2023-12-28T05:45:25;2;;;1.4;;
24867;SDS011;12941;48.698;9.310;2023-12-28T05:46:30;2;;;1.4;;
24867;SDS011;12941;48.698;9.310;2023-12-28T05:47:30;2;;;1.4;;
24867;SDS011;12941;48.698;9.310;2023-12-28T05:48:35;3.2;;;2;;
24867;SDS011;12941;48.698;9.310;2023-12-28T05:49:40;3.2;;;2;;
24867;SDS011;12941;48.698;9.310;2023-12-28T05:50:45;3.2;;;2;;
24867;SDS011;12941;48.698;9.310;2023-12-28T05:51:50;3.2;;;2;;
24867;SDS011;12941;48.698;9.310;2023-12-28T05:52:55;3.2;;;2;;
24867;SDS011;12941;48.698;9.310;2023-12-28T05:54:00;2.1;;;1.2;;
24867;SDS011;12941;48.698;9.310;2023-12-28T05:55:00;2.1;;;1.2;;
24867;SDS011;12941;48.698;9.310;2023-12-28T05:56:05;2.1;;;1.2;;
24867;SDS011;12941;48.698;9.310;2023-12-28T05:57:05;2.1;;;1.2;;
24867;SDS011;12941;48.698;9.310;2023-12-28T05:58:10;2.1;;;1.2;;
24867;SDS011;12941;48.698;9.310;2023-12-28T05:59:10;1.8;;;1.3;;
24867;SDS011;12941;48.698;9.310;2023-12-28T06:00:15;1.8;;;1.3;;
24867;SDS011;12941;48.698;9.310;2023-12-28T06:01:20;1.8;;;1.3;;
24867;SDS011;12941;48.698;9.310;2023-12-28T06:02:25;1.8;;;1.3;;
24867;SDS011;12941;48.698;9.310;2023-12-28T06:03:25;1.5;;;1.2;;
24867;SDS011;12941;48.698;9.310;2023-12-28T06:04:30;1.5;;;1.2;;
24867;SDS011;12941;48.698;9.310;2023-12-28T06:05:35;1.5;;;1.2;;
24867;SDS011;12941;48.698;9.310;2023-12-28T06:06:40;1.5;;;1.2;;
24867;SDS011;12941;48.698;9.310;2023-12-28T06:07:45;1.5;;;1.2;;
24867;SDS011;12941;48.698;9.310;2023-12-28T06:08:45;1.8;;;1.4;;
24867;SDS011;12941;48.698;9.310;2023-12-28T06:09:50;1.8;;;1.4;;
24867;SDS011;12941;48.698;9.310;2023-12-28T06:10:55;1.8;;;1.4;;
24867;SDS011;12941;48.698;9.310;2023-12-28T06:11:55;1.8;;;1.4;;
24867;SDS011;12941;48.698;9.310;2023-12-28T06:12:55;1.8;;;1.4;;
24867;SDS011;12941;48.698;9.310;2023-12-28T06:14:00;2;;;1.2;;
24867;SDS011;12941;48.698;9.310;2023-12-28T06:15:05;2;;;1.2;;
24867;SDS011;12941;48.698;9.310;2023-12-28T06:16:05;2;;;1.2;;
24867;SDS011;12941;48.698;9.310;2023-12-28T06:17:05;2;;;1.2;;
24867;SDS011;12941;48.698;9.310;2023-12-28T06:18:05;2;;;1.2;;
24867;SDS011;12941;48.698;9.310;2023-12-28T06:19:05;1.5;;;1.3;;
24867;SDS011;12941;48.698;9.310;2023-12-28T06:20:10;1.5;;;1.3;;
24867;SDS011;12941;48.698;9.310;2023-12-28T06:21:10;1.5;;;1.3;;
24867;SDS011;12941;48.698;9.310;2023-12-28T06:22:15;1.5;;;1.3;;
24867;SDS011;12941;48.698;9.310;2023-12-28T06:23:15;1.5;;;1.3;;
24867;SDS011;12941;48.698;9.310;2023-12-28T06:24:15;1.9;;;1.4;;
24867;SDS011;12941;48.698;9.310;2023-12-28T06:25:20;1.9;;;1.4;;
24867;SDS011;12941;48.698;9.310;2023-12-28T06:26:20;1.9;;;1.4;;
24867;SDS011;12941;48.698;9.310;2023-12-28T06:27:20;1.9;;;1.4;;
24867;SDS011;12941;48.698;9.310;2023-12-28T06:28:25;2;;;1.4;;
24867;SDS011;12941;48.698;9.310;2023-12-28T06:29:25;2;;;1.4;;
24867;SDS011;12941;48.698;9.310;2023-12-28T06:30:25;2;;;1.4;;
24867;SDS011;12941;48.698;9.310;2023-12-28T06:31:25;2;;;1.4;;